Time;durP1;ratioP1;P1;durP2;ratioP2;P2;SDS_P1;SDS_P2;PMS_P1;PMS_P2;Temp;Humidity;BMP_temperature;BMP_pressure;BME280_temperature;BME280_humidity;BME280_pressure;Samples;Min_cycle;Max_cycle;Signal;HPM_P1;HPM_P2
2021/12/30 00:02:11;;;;;;;39.75;5.93;;;8.40;99.90;;;;;;4806985;29;20402;-92
2021/12/30 00:04:36;;;;;;;46.05;6.10;;;8.40;99.90;;;;;;4790790;29;20066;-92
2021/12/30 00:07:02;;;;;;;39.17;5.95;;;8.40;99.90;;;;;;4805867;29;20047;-92
2021/12/30 00:09:28;;;;;;;41.28;5.60;;;8.40;99.90;;;;;;4805853;29;20049;-92
2021/12/30 00:11:54;;;;;;;42.63;6.05;;;8.40;99.90;;;;;;4805911;29;20128;-93
2021/12/30 00:14:20;;;;;;;43.50;6.18;;;8.40;99.90;;;;;;4805754;29;20130;-92
2021/12/30 00:16:45;;;;;;;51.15;6.50;;;8.40;99.90;;;;;;4805375;29;20051;-92
2021/12/30 00:19:12;;;;;;;41.92;6.32;;;8.40;99.90;;;;;;4806457;29;20061;-91
2021/12/30 00:21:38;;;;;;;48.40;6.55;;;8.40;99.90;;;;;;4805275;29;20134;-92
2021/12/30 00:24:04;;;;;;;43.10;6.30;;;8.30;99.90;;;;;;4805579;29;20047;-92
2021/12/30 00:26:30;;;;;;;53.83;6.45;;;8.30;99.90;;;;;;4790946;29;20539;-92
2021/12/30 00:28:56;;;;;;;51.53;6.53;;;8.40;99.90;;;;;;4790914;29;20055;-92
2021/12/30 00:31:22;;;;;;;41.17;6.57;;;8.30;99.90;;;;;;4790397;29;20050;-92
2021/12/30 00:33:47;;;;;;;47.65;7.25;;;8.30;99.90;;;;;;4805084;29;20054;-92
2021/12/30 00:36:13;;;;;;;46.30;6.95;;;8.30;99.90;;;;;;4790316;29;20051;-92
2021/12/30 00:38:40;;;;;;;44.50;6.72;;;8.30;99.90;;;;;;4806124;29;20129;-92
2021/12/30 00:41:07;;;;;;;40.90;5.80;;;8.20;99.90;;;;;;4805407;29;20466;-91
2021/12/30 00:43:33;;;;;;;38.10;6.18;;;8.20;99.90;;;;;;4776115;29;20062;-92
2021/12/30 00:45:59;;;;;;;55.70;6.20;;;8.20;99.90;;;;;;4805873;29;20516;-92
2021/12/30 00:48:25;;;;;;;47.85;6.82;;;8.20;99.90;;;;;;4806385;29;20047;-92
2021/12/30 00:50:51;;;;;;;44.33;6.72;;;8.10;99.90;;;;;;4790085;29;20054;-92
2021/12/30 00:53:17;;;;;;;46.38;6.85;;;8.10;99.90;;;;;;4790339;29;20054;-92
2021/12/30 00:55:42;;;;;;;49.78;7.00;;;8.20;99.90;;;;;;4804210;29;20485;-93
2021/12/30 00:58:10;;;;;;;41.47;6.40;;;8.10;99.90;;;;;;4804867;29;20502;-92
2021/12/30 01:00:37;;;;;;;43.80;6.95;;;8.00;99.90;;;;;;4790026;29;20050;-90
2021/12/30 01:03:03;;;;;;;41.88;6.15;;;8.00;99.90;;;;;;4790416;29;20059;-92
2021/12/30 01:05:28;;;;;;;41.00;6.88;;;8.00;99.90;;;;;;4804878;29;20054;-93
2021/12/30 01:07:54;;;;;;;46.10;7.22;;;8.00;99.90;;;;;;4805727;29;20200;-93
2021/12/30 01:10:22;;;;;;;43.65;7.45;;;8.00;99.90;;;;;;4804396;29;20051;-92
2021/12/30 01:12:48;;;;;;;45.80;6.72;;;8.00;99.90;;;;;;4789652;29;20051;-92
2021/12/30 01:15:17;;;;;;;47.70;7.10;;;8.10;99.90;;;;;;4804720;29;20478;-92
2021/12/30 01:18:23;;;;;;;47.83;6.63;;;8.10;99.90;;;;;;4774970;29;20058;-92
2021/12/30 01:20:31;;;;;;;38.35;6.72;;;8.10;99.90;;;;;;4789974;29;20515;-93
2021/12/30 01:22:56;;;;;;;42.42;7.22;;;8.00;99.90;;;;;;4805347;29;20126;-93
2021/12/30 01:25:22;;;;;;;41.80;6.60;;;7.90;99.90;;;;;;4805537;29;20103;-93
2021/12/30 01:27:47;;;;;;;53.00;6.90;;;7.90;99.90;;;;;;4805380;29;20050;-92
2021/12/30 01:30:15;;;;;;;40.75;6.03;;;7.90;99.90;;;;;;4805517;29;20046;-92
2021/12/30 01:32:41;;;;;;;49.15;6.95;;;7.90;99.90;;;;;;4804303;29;20137;-92
2021/12/30 01:35:10;;;;;;;39.50;5.95;;;7.90;99.90;;;;;;4804496;29;20521;-93
2021/12/30 01:37:35;;;;;;;46.30;7.00;;;7.90;99.90;;;;;;4790146;29;20509;-92
2021/12/30 01:40:02;;;;;;;45.33;7.38;;;7.90;99.90;;;;;;4804906;29;20062;-91
2021/12/30 01:42:30;;;;;;;43.10;6.70;;;7.80;99.90;;;;;;4804633;29;20394;-93
2021/12/30 01:44:55;;;;;;;45.22;6.40;;;7.80;99.90;;;;;;4805339;29;20448;-92
2021/12/30 01:47:24;;;;;;;42.53;7.63;;;7.90;99.90;;;;;;4805959;29;20047;-92
2021/12/30 01:49:51;;;;;;;35.38;5.70;;;7.80;99.90;;;;;;4804985;29;20066;-92
2021/12/30 01:52:17;;;;;;;45.40;6.10;;;7.80;99.90;;;;;;4789494;29;20054;-91
2021/12/30 01:54:43;;;;;;;46.92;6.22;;;7.80;99.90;;;;;;4803861;29;20050;-87
2021/12/30 01:57:08;;;;;;;43.38;6.20;;;7.80;99.90;;;;;;4804472;29;20051;-92
2021/12/30 01:59:34;;;;;;;39.13;5.43;;;7.80;99.90;;;;;;4804050;29;20057;-91
2021/12/30 02:02:00;;;;;;;40.10;5.65;;;7.70;99.90;;;;;;4774376;29;20116;-92
2021/12/30 02:04:28;;;;;;;51.00;6.93;;;7.70;99.90;;;;;;4789521;29;20062;-91
2021/12/30 02:06:57;;;;;;;49.85;6.95;;;7.80;99.90;;;;;;4803768;29;20078;-92
2021/12/30 02:09:23;;;;;;;52.08;6.80;;;7.70;99.90;;;;;;4805553;29;20057;-92
2021/12/30 02:11:49;;;;;;;39.72;6.57;;;7.70;99.90;;;;;;4777915;29;20085;-92
2021/12/30 02:14:15;;;;;;;40.05;7.03;;;7.80;99.90;;;;;;4808586;29;20485;-92
2021/12/30 02:16:40;;;;;;;51.25;7.32;;;7.80;99.90;;;;;;4807910;29;20103;-92
2021/12/30 02:19:06;;;;;;;46.55;6.95;;;7.80;99.90;;;;;;4807338;29;20141;-92
2021/12/30 02:21:32;;;;;;;46.85;6.93;;;7.70;99.90;;;;;;4808913;29;20463;-91
2021/12/30 02:23:58;;;;;;;43.80;7.20;;;7.80;99.90;;;;;;4807173;29;20547;-92
2021/12/30 02:26:24;;;;;;;43.78;6.85;;;7.80;99.90;;;;;;4792575;29;20057;-92
2021/12/30 02:28:49;;;;;;;51.40;7.03;;;7.80;99.90;;;;;;4807058;29;20051;-92
2021/12/30 02:31:17;;;;;;;41.40;6.63;;;7.80;99.90;;;;;;4807448;29;20051;-93
2021/12/30 02:33:43;;;;;;;42.95;6.75;;;7.80;99.90;;;;;;4807647;29;20059;-92
2021/12/30 02:36:09;;;;;;;42.95;6.63;;;7.80;99.90;;;;;;4808069;29;20051;-93
2021/12/30 02:38:35;;;;;;;41.72;7.20;;;7.80;99.90;;;;;;4808741;29;20073;-92
2021/12/30 02:41:01;;;;;;;43.22;6.78;;;7.80;99.90;;;;;;4806765;29;20098;-92
2021/12/30 02:43:29;;;;;;;49.75;6.47;;;7.80;99.90;;;;;;4808498;29;20109;-91
2021/12/30 02:45:55;;;;;;;51.03;7.38;;;7.80;99.90;;;;;;4791815;29;20493;-93
2021/12/30 02:48:26;;;;;;;43.45;8.00;;;7.90;99.90;;;;;;4807302;29;20146;-92
2021/12/30 02:50:53;;;;;;;47.28;8.00;;;7.90;99.90;;;;;;4806907;29;20054;-92
2021/12/30 02:53:20;;;;;;;48.90;8.05;;;7.90;99.90;;;;;;4792325;29;20051;-89
2021/12/30 02:55:46;;;;;;;49.80;7.50;;;8.00;99.90;;;;;;4807104;29;20069;-91
2021/12/30 02:58:12;;;;;;;49.25;7.43;;;8.00;99.90;;;;;;4806342;29;20050;-91
2021/12/30 03:00:37;;;;;;;43.42;7.95;;;8.00;99.90;;;;;;4792271;29;20090;-92
2021/12/30 03:03:03;;;;;;;48.00;7.90;;;8.00;99.90;;;;;;4806801;29;20086;-91
2021/12/30 03:05:29;;;;;;;50.45;8.20;;;8.10;99.90;;;;;;4807003;29;20051;-91
2021/12/30 03:07:54;;;;;;;44.42;8.32;;;8.10;99.90;;;;;;4806513;29;20054;-91
2021/12/30 03:10:22;;;;;;;50.10;8.13;;;8.10;99.90;;;;;;4806753;29;20081;-92
2021/12/30 03:12:53;;;;;;;47.33;9.20;;;8.10;99.90;;;;;;4806865;29;20051;-92
2021/12/30 03:15:18;;;;;;;52.47;9.50;;;8.10;99.90;;;;;;4792555;29;20062;-91
2021/12/30 03:17:44;;;;;;;40.00;8.80;;;8.20;99.90;;;;;;4791995;29;20051;-91
2021/12/30 03:20:10;;;;;;;67.20;9.75;;;8.20;99.90;;;;;;4806350;29;20055;-91
2021/12/30 03:22:37;;;;;;;52.42;9.85;;;8.30;99.90;;;;;;4808006;29;20426;-91
2021/12/30 03:25:04;;;;;;;52.88;9.80;;;8.40;99.90;;;;;;4791015;29;20046;-92
2021/12/30 03:27:30;;;;;;;55.05;10.27;;;8.40;99.90;;;;;;4791542;29;20498;-92
2021/12/30 03:29:56;;;;;;;55.00;9.73;;;8.40;99.90;;;;;;4806077;29;20055;-90
2021/12/30 03:32:21;;;;;;;56.78;9.98;;;8.50;99.90;;;;;;4807572;29;20134;-91
2021/12/30 03:34:47;;;;;;;49.60;10.85;;;8.50;99.90;;;;;;4806418;29;20139;-92
2021/12/30 03:37:13;;;;;;;56.00;9.68;;;8.50;99.90;;;;;;4806991;29;20117;-92
2021/12/30 03:39:40;;;;;;;60.70;10.68;;;8.50;99.90;;;;;;4806727;29;20065;-92
2021/12/30 03:42:06;;;;;;;43.65;9.32;;;8.50;99.90;;;;;;4791379;29;20540;-92
2021/12/30 03:44:32;;;;;;;62.13;10.30;;;8.60;99.90;;;;;;4807556;29;20057;-91
2021/12/30 03:46:57;;;;;;;48.72;10.30;;;8.60;99.90;;;;;;4806078;29;20207;-89
2021/12/30 03:49:23;;;;;;;56.45;10.75;;;8.70;99.90;;;;;;4806924;29;20550;-91
2021/12/30 03:51:51;;;;;;;60.78;10.63;;;8.60;99.90;;;;;;4807522;29;20401;-92
2021/12/30 03:54:17;;;;;;;50.42;9.85;;;8.70;99.90;;;;;;4776815;29;20090;-91
2021/12/30 03:56:42;;;;;;;48.78;9.73;;;8.70;99.90;;;;;;4807336;29;20086;-91
2021/12/30 03:59:09;;;;;;;58.22;9.85;;;8.80;99.90;;;;;;4806892;29;20051;-92
2021/12/30 04:01:35;;;;;;;53.53;10.05;;;8.80;99.90;;;;;;4806244;29;20059;-91
2021/12/30 04:04:00;;;;;;;55.88;9.88;;;8.80;99.90;;;;;;4805788;29;20363;-91
2021/12/30 04:06:27;;;;;;;51.65;10.20;;;8.90;99.90;;;;;;4805895;29;20065;-92
2021/12/30 04:08:54;;;;;;;55.60;10.48;;;8.90;99.90;;;;;;4805774;29;20130;-91
2021/12/30 04:11:22;;;;;;;52.50;10.25;;;8.90;99.90;;;;;;4775978;29;20466;-92
2021/12/30 04:13:48;;;;;;;52.22;9.85;;;9.00;99.90;;;;;;4805788;29;20054;-91
2021/12/30 04:16:14;;;;;;;54.70;9.82;;;9.00;99.90;;;;;;4790481;29;20123;-92
2021/12/30 04:18:39;;;;;;;55.88;9.68;;;9.00;99.90;;;;;;4790824;29;20050;-91
2021/12/30 04:21:05;;;;;;;46.80;9.48;;;9.10;99.90;;;;;;4805466;29;20053;-91
2021/12/30 04:23:31;;;;;;;46.40;9.00;;;9.10;99.90;;;;;;4806916;29;20055;-91
2021/12/30 04:25:56;;;;;;;50.50;8.90;;;9.20;99.90;;;;;;4805796;29;20055;-92
2021/12/30 04:28:22;;;;;;;58.28;9.65;;;9.30;99.90;;;;;;4805409;29;20101;-92
2021/12/30 04:30:48;;;;;;;52.55;8.75;;;9.30;99.90;;;;;;4805119;29;20489;-91
2021/12/30 04:33:13;;;;;;;56.60;10.07;;;9.40;99.90;;;;;;4805573;29;20103;-92
2021/12/30 04:35:39;;;;;;;51.88;9.15;;;9.50;99.90;;;;;;4805279;29;20047;-92
2021/12/30 04:38:05;;;;;;;59.60;9.88;;;9.50;99.90;;;;;;4805043;29;20069;-92
2021/12/30 04:40:30;;;;;;;60.63;11.07;;;9.60;99.90;;;;;;4805108;29;20128;-91
2021/12/30 04:42:56;;;;;;;61.20;11.63;;;9.70;99.90;;;;;;4805339;29;20406;-92
2021/12/30 04:45:24;;;;;;;55.15;9.90;;;9.80;99.90;;;;;;4805993;29;20063;-92
2021/12/30 04:47:50;;;;;;;63.95;10.85;;;9.80;99.90;;;;;;4805397;29;20109;-92
2021/12/30 04:50:16;;;;;;;54.72;10.75;;;9.90;99.90;;;;;;4806021;29;20081;-92
2021/12/30 04:52:41;;;;;;;65.55;11.10;;;9.90;99.90;;;;;;4805113;29;20448;-91
2021/12/30 04:55:07;;;;;;;55.17;10.63;;;9.90;99.90;;;;;;4804474;29;20113;-91
2021/12/30 04:57:33;;;;;;;57.63;10.80;;;9.90;99.90;;;;;;4806255;29;20379;-91
2021/12/30 04:59:59;;;;;;;57.05;11.88;;;10.00;99.90;;;;;;4806273;29;20141;-92
2021/12/30 05:02:31;;;;;;;55.72;11.48;;;10.00;99.90;;;;;;4804574;29;20093;-91
2021/12/30 05:04:57;;;;;;;62.13;12.13;;;10.10;99.90;;;;;;4791143;29;20062;-91
2021/12/30 05:07:22;;;;;;;57.75;10.90;;;10.10;99.90;;;;;;4804346;29;20051;-91
2021/12/30 05:09:48;;;;;;;60.42;11.52;;;10.10;99.90;;;;;;4805999;29;20061;-92
2021/12/30 05:12:14;;;;;;;54.03;11.82;;;10.30;99.90;;;;;;4788795;29;20054;-92
2021/12/30 05:14:39;;;;;;;49.58;11.40;;;10.20;99.90;;;;;;4804859;29;20062;-93
2021/12/30 05:17:05;;;;;;;44.63;11.20;;;10.20;99.90;;;;;;4805353;29;20050;-93
2021/12/30 05:19:31;;;;;;;55.97;10.88;;;10.30;99.90;;;;;;4804218;29;20058;-93
2021/12/30 05:21:57;;;;;;;53.20;12.00;;;10.30;99.90;;;;;;4789477;29;20082;-93
2021/12/30 05:24:23;;;;;;;45.22;9.85;;;10.30;99.90;;;;;;4789614;29;20502;-90
2021/12/30 05:26:48;;;;;;;37.78;9.60;;;10.30;99.90;;;;;;4789434;29;20055;-92
2021/12/30 05:29:15;;;;;;;40.15;9.55;;;10.40;99.90;;;;;;4804948;29;20050;-90
2021/12/30 05:31:41;;;;;;;41.22;9.77;;;10.40;99.90;;;;;;4774872;29;20198;-92
2021/12/30 05:34:06;;;;;;;35.53;9.20;;;10.40;99.90;;;;;;4789282;29;20130;-91
2021/12/30 05:36:32;;;;;;;41.35;9.18;;;10.40;99.90;;;;;;4773976;29;20061;-92
2021/12/30 05:38:58;;;;;;;30.10;8.80;;;10.40;99.90;;;;;;4804455;29;20055;-92
2021/12/30 05:41:26;;;;;;;29.40;9.05;;;10.40;99.90;;;;;;4803884;29;20383;-94
2021/12/30 05:43:52;;;;;;;38.13;9.70;;;10.40;99.90;;;;;;4804927;29;20051;-91
2021/12/30 05:46:17;;;;;;;23.60;9.02;;;10.40;99.90;;;;;;4804633;29;20047;-94
2021/12/30 05:48:43;;;;;;;27.23;9.38;;;10.50;99.90;;;;;;4805407;29;20054;-90
2021/12/30 05:51:08;;;;;;;28.67;9.23;;;10.50;99.90;;;;;;4804496;29;20108;-91
2021/12/30 05:53:34;;;;;;;27.05;8.88;;;10.50;99.90;;;;;;4804034;29;20076;-90
2021/12/30 05:56:00;;;;;;;26.63;9.10;;;10.50;99.90;;;;;;4804690;29;20090;-91
2021/12/30 05:58:25;;;;;;;24.10;9.32;;;10.50;99.90;;;;;;4804996;29;20141;-91
2021/12/30 06:00:51;;;;;;;23.58;9.05;;;10.50;99.90;;;;;;4804383;29;20093;-90
2021/12/30 06:03:19;;;;;;;37.45;10.77;;;10.50;99.90;;;;;;4788582;29;20051;-90
2021/12/30 06:05:49;;;;;;;38.58;11.35;;;10.50;99.90;;;;;;4804805;29;20072;-90
2021/12/30 06:08:14;;;;;;;44.20;12.73;;;10.60;99.90;;;;;;4804846;29;20051;-90
2021/12/30 06:10:41;;;;;;;40.83;12.13;;;10.60;99.90;;;;;;4805207;29;20406;-91
2021/12/30 06:13:07;;;;;;;48.35;13.70;;;10.50;99.90;;;;;;4803967;29;20055;-92
2021/12/30 06:15:33;;;;;;;47.25;14.32;;;10.60;99.90;;;;;;4804877;29;20051;-91
2021/12/30 06:17:58;;;;;;;59.95;15.10;;;10.60;99.90;;;;;;4804967;29;20050;-92
2021/12/30 06:20:24;;;;;;;60.47;15.38;;;10.70;99.90;;;;;;4804310;29;20409;-92
2021/12/30 06:22:50;;;;;;;65.72;16.40;;;10.70;99.90;;;;;;4789188;29;20051;-91
2021/12/30 06:25:15;;;;;;;70.63;17.17;;;10.70;99.90;;;;;;4805215;29;20066;-92
2021/12/30 06:27:41;;;;;;;70.93;16.67;;;10.80;99.90;;;;;;4788978;29;20147;-91
2021/12/30 06:30:07;;;;;;;73.18;16.92;;;10.80;99.90;;;;;;4804011;29;20050;-92
2021/12/30 06:32:33;;;;;;;76.60;16.92;;;10.80;99.90;;;;;;4804468;29;20054;-91
2021/12/30 06:34:58;;;;;;;71.93;17.02;;;10.80;99.90;;;;;;4804015;29;20047;-91
2021/12/30 06:37:24;;;;;;;56.35;16.02;;;10.80;99.90;;;;;;4803391;29;20053;-91
2021/12/30 06:39:50;;;;;;;56.45;15.40;;;10.90;99.90;;;;;;4805152;29;20124;-92
2021/12/30 06:42:15;;;;;;;54.30;14.82;;;10.90;99.90;;;;;;4805272;29;20059;-91
2021/12/30 06:44:41;;;;;;;43.75;14.00;;;10.90;99.90;;;;;;4804504;29;20216;-91
2021/12/30 06:47:07;;;;;;;41.97;13.20;;;11.00;99.90;;;;;;4804028;29;20047;-91
2021/12/30 06:49:38;;;;;;;38.00;13.45;;;11.00;99.90;;;;;;4804703;29;20078;-91
2021/12/30 06:52:05;;;;;;;43.42;13.73;;;11.00;99.90;;;;;;4804294;29;20038;-91
2021/12/30 06:54:31;;;;;;;37.20;12.27;;;11.00;99.90;;;;;;4788261;29;20055;-90
2021/12/30 06:56:59;;;;;;;33.58;12.23;;;11.00;99.90;;;;;;4791392;29;20102;-91
2021/12/30 06:59:25;;;;;;;37.35;12.65;;;11.10;99.90;;;;;;4807531;29;20046;-90
2021/12/30 07:01:51;;;;;;;34.15;11.75;;;11.10;99.90;;;;;;4792397;29;20069;-91
2021/12/30 07:04:16;;;;;;;29.20;10.80;;;11.10;99.90;;;;;;4808224;29;20057;-91
2021/12/30 07:06:42;;;;;;;24.15;10.38;;;11.10;99.90;;;;;;4807879;29;20400;-90
2021/12/30 07:09:08;;;;;;;26.65;11.13;;;11.20;99.90;;;;;;4792101;29;20054;-91
2021/12/30 07:11:33;;;;;;;21.33;10.15;;;11.10;99.90;;;;;;4807922;29;20050;-91
2021/12/30 07:13:59;;;;;;;21.75;9.55;;;11.10;99.90;;;;;;4808062;29;20505;-91
2021/12/30 07:16:24;;;;;;;20.50;9.85;;;11.20;99.90;;;;;;4806229;29;20554;-87
2021/12/30 07:18:50;;;;;;;16.98;8.30;;;11.20;99.90;;;;;;4807105;29;20398;-91
2021/12/30 07:21:16;;;;;;;19.08;8.25;;;11.20;99.90;;;;;;4808037;29;20489;-90
2021/12/30 07:23:42;;;;;;;15.45;6.95;;;11.20;99.90;;;;;;4807634;29;20051;-90
2021/12/30 07:26:08;;;;;;;14.55;6.40;;;11.20;99.90;;;;;;4806712;29;20058;-91
2021/12/30 07:28:33;;;;;;;9.10;5.47;;;11.20;99.90;;;;;;4805857;29;20054;-91
2021/12/30 07:30:59;;;;;;;7.45;4.65;;;11.30;99.90;;;;;;4807845;29;20047;-90
2021/12/30 07:33:25;;;;;;;7.82;4.35;;;11.30;99.90;;;;;;4807873;29;20051;-91
2021/12/30 07:35:50;;;;;;;8.95;4.47;;;11.30;99.90;;;;;;4807377;29;20375;-92
2021/12/30 07:38:16;;;;;;;7.50;4.45;;;11.30;99.90;;;;;;4791665;29;20094;-91
2021/12/30 07:40:41;;;;;;;9.70;4.55;;;11.30;99.90;;;;;;4805810;29;20055;-91
2021/12/30 07:43:07;;;;;;;9.75;4.45;;;11.30;99.90;;;;;;4807487;29;20058;-90
2021/12/30 07:45:33;;;;;;;6.70;3.90;;;11.30;99.90;;;;;;4807001;29;20050;-91
2021/12/30 07:47:58;;;;;;;7.75;3.78;;;11.40;99.90;;;;;;4806456;29;20059;-91
2021/12/30 07:50:24;;;;;;;6.70;3.45;;;11.40;99.90;;;;;;4807494;29;20146;-92
2021/12/30 07:52:50;;;;;;;9.27;3.70;;;11.40;99.90;;;;;;4807183;29;20058;-91
2021/12/30 07:55:16;;;;;;;5.20;3.70;;;11.40;99.90;;;;;;4791015;29;20402;-91
2021/12/30 07:57:42;;;;;;;7.57;3.10;;;11.40;99.90;;;;;;4790961;29;20051;-91
2021/12/30 08:00:10;;;;;;;3.63;2.80;;;11.40;99.90;;;;;;4776537;29;20050;-91
2021/12/30 08:02:36;;;;;;;4.10;2.90;;;11.40;99.90;;;;;;4806741;29;20063;-92
2021/12/30 08:05:02;;;;;;;5.60;2.60;;;11.40;99.90;;;;;;4776199;29;20055;-91
2021/12/30 08:07:27;;;;;;;4.85;2.85;;;11.40;99.90;;;;;;4806000;29;20134;-91
2021/12/30 08:09:54;;;;;;;4.38;2.90;;;11.40;99.90;;;;;;4790686;29;20070;-91
2021/12/30 08:12:20;;;;;;;7.22;2.90;;;11.50;99.90;;;;;;4806014;29;20055;-91
2021/12/30 08:14:45;;;;;;;7.80;3.10;;;11.40;99.90;;;;;;4805189;29;20061;-92
2021/12/30 08:17:11;;;;;;;6.88;3.22;;;11.50;99.90;;;;;;4805963;29;20057;-90
2021/12/30 08:19:37;;;;;;;6.45;3.25;;;11.50;99.90;;;;;;4805771;29;20413;-91
2021/12/30 08:22:03;;;;;;;8.88;3.88;;;11.50;99.90;;;;;;4807033;29;20454;-91
2021/12/30 08:24:29;;;;;;;9.48;4.45;;;11.50;99.90;;;;;;4805587;29;20039;-90
2021/12/30 08:26:55;;;;;;;10.25;4.90;;;11.50;99.90;;;;;;4806519;29;20050;-90
2021/12/30 08:29:21;;;;;;;11.73;5.03;;;11.50;99.90;;;;;;4806418;29;20047;-91
2021/12/30 08:31:47;;;;;;;15.00;6.03;;;11.50;99.90;;;;;;4806214;29;20058;-90
2021/12/30 08:34:13;;;;;;;19.88;7.18;;;11.50;99.90;;;;;;4806733;29;20086;-90
2021/12/30 08:36:39;;;;;;;13.40;6.32;;;11.50;99.90;;;;;;4806304;29;20109;-90
2021/12/30 08:39:05;;;;;;;15.07;6.55;;;11.50;99.90;;;;;;4806568;29;20050;-93
2021/12/30 08:41:30;;;;;;;15.48;6.57;;;11.60;99.90;;;;;;4805117;29;20139;-92
2021/12/30 08:43:56;;;;;;;12.52;6.68;;;11.60;99.90;;;;;;4804798;29;20059;-91
2021/12/30 08:46:22;;;;;;;15.43;6.38;;;11.60;99.90;;;;;;4790176;29;20054;-93
2021/12/30 08:48:48;;;;;;;13.50;5.85;;;11.70;99.90;;;;;;4790126;29;20117;-93
2021/12/30 08:51:13;;;;;;;13.07;5.68;;;11.70;99.90;;;;;;4806254;29;20053;-89
2021/12/30 08:53:40;;;;;;;20.67;6.13;;;11.70;99.90;;;;;;4805550;29;20474;-87
2021/12/30 08:56:11;;;;;;;17.73;6.00;;;11.60;99.90;;;;;;4805789;29;20042;-88
2021/12/30 08:58:38;;;;;;;20.00;5.70;;;11.70;99.90;;;;;;4790323;29;20192;-85
2021/12/30 09:01:03;;;;;;;18.10;5.53;;;11.70;99.90;;;;;;4806549;29;20069;-89
2021/12/30 09:03:29;;;;;;;17.33;5.28;;;11.70;99.90;;;;;;4806130;29;20494;-89
2021/12/30 09:05:55;;;;;;;16.77;5.05;;;11.70;99.90;;;;;;4804507;29;20223;-91
2021/12/30 09:08:20;;;;;;;17.30;5.18;;;11.70;99.90;;;;;;4790211;29;20166;-91
2021/12/30 09:10:47;;;;;;;17.38;4.57;;;11.70;99.90;;;;;;4805594;29;20057;-91
2021/12/30 09:13:16;;;;;;;16.77;4.38;;;11.70;99.90;;;;;;4804648;29;20465;-90
2021/12/30 09:15:42;;;;;;;20.17;4.80;;;11.70;99.90;;;;;;4804490;29;20043;-88
2021/12/30 09:18:07;;;;;;;14.55;4.57;;;11.70;99.90;;;;;;4804792;29;20047;-89
2021/12/30 09:20:35;;;;;;;13.02;4.05;;;11.70;99.90;;;;;;4804836;29;20450;-89
2021/12/30 09:23:03;;;;;;;20.75;5.20;;;11.80;99.90;;;;;;4789771;29;20058;-91
2021/12/30 09:25:29;;;;;;;10.30;4.20;;;11.80;99.90;;;;;;4805933;29;20103;-91
2021/12/30 09:27:54;;;;;;;15.73;4.20;;;11.70;99.90;;;;;;4789071;29;20050;-89
2021/12/30 09:30:20;;;;;;;10.70;4.40;;;11.80;99.90;;;;;;4805962;29;20053;-91
2021/12/30 09:32:46;;;;;;;12.73;4.45;;;11.80;99.90;;;;;;4804496;29;20043;-90
2021/12/30 09:35:12;;;;;;;19.17;5.15;;;11.80;99.90;;;;;;4789698;29;20074;-91
2021/12/30 09:37:39;;;;;;;15.52;5.10;;;11.80;99.90;;;;;;4805898;29;20051;-92
2021/12/30 09:40:05;;;;;;;18.00;5.85;;;11.80;99.90;;;;;;4788626;29;20071;-93
2021/12/30 09:42:31;;;;;;;14.90;5.70;;;11.90;99.90;;;;;;4804132;29;20494;-89
2021/12/30 09:44:56;;;;;;;14.48;5.93;;;11.90;99.90;;;;;;4805292;29;20058;-91
2021/12/30 09:47:22;;;;;;;17.80;6.55;;;11.80;99.90;;;;;;4804585;29;20375;-91
2021/12/30 09:49:50;;;;;;;20.33;5.97;;;11.90;99.90;;;;;;4804125;29;20402;-89
2021/12/30 09:52:16;;;;;;;18.10;6.18;;;11.90;99.90;;;;;;4804597;29;20143;-90
2021/12/30 09:54:42;;;;;;;18.10;5.80;;;11.80;99.90;;;;;;4805344;29;20138;-90
2021/12/30 09:57:07;;;;;;;22.25;6.32;;;11.90;99.90;;;;;;4804242;29;20046;-90
2021/12/30 09:59:34;;;;;;;18.80;5.68;;;11.80;99.90;;;;;;4804023;29;20051;-90
2021/12/30 10:01:59;;;;;;;21.42;5.32;;;11.80;99.90;;;;;;4805395;29;20171;-90
2021/12/30 10:04:30;;;;;;;18.17;4.55;;;11.80;99.90;;;;;;4805684;29;20088;-90
2021/12/30 10:06:56;;;;;;;;;;;11.80;99.90;;;;;;4804309;29;20051;-90
2021/12/30 10:09:29;;;;;;;17.85;4.78;;;11.70;99.90;;;;;;4804274;29;20299;-90
2021/12/30 10:12:00;;;;;;;20.65;4.80;;;11.70;99.90;;;;;;4803646;29;20520;-89
2021/12/30 10:14:28;;;;;;;16.17;4.82;;;11.80;99.90;;;;;;4774827;29;20053;-91
2021/12/30 10:17:23;;;;;;;22.30;4.55;;;11.70;99.90;;;;;;4789038;29;20053;-90
2021/12/30 10:19:50;;;;;;;19.33;5.13;;;11.70;99.90;;;;;;4804068;29;20072;-88
2021/12/30 10:22:20;;;;;;;25.92;5.85;;;11.80;99.90;;;;;;4804337;29;20422;-91
2021/12/30 10:24:45;;;;;;;23.75;4.93;;;11.80;99.90;;;;;;4805482;29;20409;-91
2021/12/30 10:27:34;;;;;;;21.13;4.72;;;11.80;99.90;;;;;;4803771;29;20130;-89
2021/12/30 10:30:00;;;;;;;25.95;5.43;;;11.80;99.90;;;;;;4804997;29;20077;-90
2021/12/30 10:32:27;;;;;;;22.50;5.30;;;11.80;99.90;;;;;;4807469;29;20147;-90
2021/12/30 10:35:12;;;;;;;23.17;5.07;;;11.80;99.90;;;;;;4792203;29;20055;-90
2021/12/30 10:37:43;;;;;;;27.15;5.88;;;11.70;99.90;;;;;;4807622;29;20490;-88
2021/12/30 10:40:26;;;;;;;27.17;6.03;;;11.70;99.90;;;;;;4791741;29;20106;-90
2021/12/30 10:42:56;;;;;;;18.35;5.60;;;11.80;99.90;;;;;;4808275;29;20065;-87
2021/12/30 10:45:22;;;;;;;27.75;5.72;;;11.70;99.90;;;;;;4792438;29;20051;-89
2021/12/30 10:47:52;;;;;;;24.77;5.75;;;11.80;99.90;;;;;;4808619;29;20051;-89
2021/12/30 10:50:21;;;;;;;25.35;5.88;;;11.80;99.90;;;;;;4808535;29;20055;-90
2021/12/30 10:52:49;;;;;;;27.95;5.97;;;11.80;99.90;;;;;;4808736;29;20112;-90
2021/12/30 10:55:15;;;;;;;29.95;6.22;;;11.80;99.90;;;;;;4791851;29;20500;-90
2021/12/30 10:57:41;;;;;;;30.63;6.60;;;11.80;99.90;;;;;;4807272;29;20206;-90
2021/12/30 11:00:08;;;;;;;25.25;5.65;;;11.80;99.90;;;;;;4808042;29;20051;-90
2021/12/30 11:02:34;;;;;;;35.75;7.22;;;11.80;99.90;;;;;;4807246;29;20094;-90
2021/12/30 11:05:04;;;;;;;34.00;6.57;;;11.80;99.90;;;;;;4806775;29;20090;-90
2021/12/30 11:07:44;;;;;;;29.40;6.63;;;11.80;99.90;;;;;;4807409;29;20050;-92
2021/12/30 11:10:11;;;;;;;32.22;6.82;;;11.80;99.90;;;;;;4791778;29;20065;-88
2021/12/30 11:12:38;;;;;;;34.45;7.00;;;11.80;99.90;;;;;;4808040;29;20059;-90
2021/12/30 11:15:20;;;;;;;32.75;7.07;;;11.80;99.90;;;;;;4806453;29;20089;-91
2021/12/30 11:17:46;;;;;;;42.40;7.97;;;11.80;99.90;;;;;;4808007;29;20497;-90
2021/12/30 11:20:11;;;;;;;37.17;8.60;;;11.80;99.90;;;;;;4806439;29;20047;-91
2021/12/30 11:22:40;;;;;;;38.67;7.25;;;11.80;99.90;;;;;;4807717;29;20059;-91
2021/12/30 11:25:08;;;;;;;35.13;6.93;;;11.80;99.90;;;;;;4791530;29;20051;-91
2021/12/30 11:27:34;;;;;;;36.92;6.80;;;11.80;99.90;;;;;;4791591;29;20055;-90
2021/12/30 11:30:03;;;;;;;32.78;6.38;;;11.80;99.90;;;;;;4806289;29;20050;-90
2021/12/30 11:32:31;;;;;;;47.17;7.15;;;11.80;99.90;;;;;;4807736;29;20054;-89
2021/12/30 11:34:56;;;;;;;37.95;6.93;;;11.80;99.90;;;;;;4806531;29;20050;-90
2021/12/30 11:37:22;;;;;;;36.03;6.53;;;11.80;99.90;;;;;;4806187;29;20111;-91
2021/12/30 11:39:50;;;;;;;33.22;6.38;;;11.80;99.90;;;;;;4806157;29;20071;-89
2021/12/30 11:42:28;;;;;;;34.97;7.03;;;11.90;99.90;;;;;;4807239;29;20139;-90
2021/12/30 11:44:55;;;;;;;33.47;6.53;;;11.90;99.90;;;;;;4792056;29;20069;-90
2021/12/30 11:47:36;;;;;;;37.50;6.53;;;11.90;99.90;;;;;;4806044;29;20058;-91
2021/12/30 11:50:26;;;;;;;36.80;7.28;;;11.90;99.90;;;;;;4805714;29;20145;-89
2021/12/30 11:53:09;;;;;;;40.05;6.80;;;11.90;99.90;;;;;;4807189;29;20062;-90
2021/12/30 11:55:57;;;;;;;34.97;5.82;;;11.90;99.90;;;;;;4806110;29;20121;-90
2021/12/30 11:58:32;;;;;;;34.13;7.10;;;11.90;99.90;;;;;;4806567;29;20124;-90
2021/12/30 12:01:11;;;;;;;34.05;5.88;;;11.90;99.90;;;;;;4807209;29;20093;-91
2021/12/30 12:03:47;;;;;;;35.47;6.45;;;11.90;99.90;;;;;;4806088;29;20059;-90
2021/12/30 12:06:28;;;;;;;32.20;7.22;;;12.00;99.90;;;;;;4805353;29;20488;-90
2021/12/30 12:09:02;;;;;;;;;;;12.00;99.90;;;;;;4806978;29;20521;-90
2021/12/30 12:11:40;;;;;;;33.22;6.72;;;11.90;99.90;;;;;;4806656;29;19925;-90
2021/12/30 12:14:12;;;;;;;32.65;6.38;;;12.00;99.90;;;;;;4805982;29;20051;-89
2021/12/30 12:16:46;;;;;;;34.90;6.93;;;12.00;99.90;;;;;;4805571;29;20061;-90
2021/12/30 12:19:12;;;;;;;28.52;5.80;;;12.10;99.90;;;;;;4805019;29;20054;-90
2021/12/30 12:21:39;;;;;;;31.25;5.63;;;12.10;99.90;;;;;;4805625;29;20180;-89
2021/12/30 12:24:25;;;;;;;32.30;5.88;;;12.10;99.90;;;;;;4806936;29;20054;-89
2021/12/30 12:26:53;;;;;;;37.38;6.10;;;12.10;99.90;;;;;;4806644;29;20066;-89
2021/12/30 12:29:55;;;;;;;37.95;7.15;;;12.10;99.90;;;;;;4804817;29;20050;-90
2021/12/30 12:32:41;;;;;;;36.75;5.57;;;12.10;99.90;;;;;;4794912;29;20059;-90
2021/12/30 12:35:19;;;;;;;25.77;5.68;;;12.20;99.90;;;;;;4804878;29;20058;-90
2021/12/30 12:37:47;;;;;;;28.67;5.93;;;12.20;99.90;;;;;;4806579;29;20473;-90
2021/12/30 12:40:16;;;;;;;29.20;5.30;;;12.20;99.90;;;;;;4805386;29;20111;-90
2021/12/30 12:42:53;;;;;;;28.98;6.90;;;12.20;99.90;;;;;;4806500;29;20113;-90